sensor_id;sensor_type;location;lat;lon;timestamp;temperature;humidity
44886;DHT22;36669;51.428;21.162;2022-09-30T00:00:09;5.80;99.90
44886;DHT22;36669;51.428;21.162;2022-09-30T00:02:34;5.80;99.90
44886;DHT22;36669;51.428;21.162;2022-09-30T00:05:00;5.70;99.90
44886;DHT22;36669;51.428;21.162;2022-09-30T00:07:25;5.70;99.90
44886;DHT22;36669;51.428;21.162;2022-09-30T00:09:51;5.60;99.90
44886;DHT22;36669;51.428;21.162;2022-09-30T00:12:16;5.50;99.90
44886;DHT22;36669;51.428;21.162;2022-09-30T00:14:42;5.40;99.90
44886;DHT22;36669;51.428;21.162;2022-09-30T00:17:08;5.20;99.90
44886;DHT22;36669;51.428;21.162;2022-09-30T00:19:33;5.10;99.90
44886;DHT22;36669;51.428;21.162;2022-09-30T00:21:59;5.10;99.90
44886;DHT22;36669;51.428;21.162;2022-09-30T00:24:24;5.10;99.90
44886;DHT22;36669;51.428;21.162;2022-09-30T00:26:50;5.20;99.90
44886;DHT22;36669;51.428;21.162;2022-09-30T00:29:15;5.30;99.90
44886;DHT22;36669;51.428;21.162;2022-09-30T00:31:41;5.20;99.90
44886;DHT22;36669;51.428;21.162;2022-09-30T00:34:07;5.10;99.90
44886;DHT22;36669;51.428;21.162;2022-09-30T00:36:37;5.00;99.90
44886;DHT22;36669;51.428;21.162;2022-09-30T00:39:04;5.00;99.90
44886;DHT22;36669;51.428;21.162;2022-09-30T00:41:30;5.00;99.90
44886;DHT22;36669;51.428;21.162;2022-09-30T00:43:56;5.00;99.90
44886;DHT22;36669;51.428;21.162;2022-09-30T00:46:30;5.10;99.90
44886;DHT22;36669;51.428;21.162;2022-09-30T00:48:57;5.10;99.90
44886;DHT22;36669;51.428;21.162;2022-09-30T00:51:41;5.10;99.90
44886;DHT22;36669;51.428;21.162;2022-09-30T00:54:13;5.20;99.90
44886;DHT22;36669;51.428;21.162;2022-09-30T00:56:45;5.20;99.90
44886;DHT22;36669;51.428;21.162;2022-09-30T00:59:18;5.10;99.90
44886;DHT22;36669;51.428;21.162;2022-09-30T01:01:44;5.10;99.90
44886;DHT22;36669;51.428;21.162;2022-09-30T01:04:15;4.90;99.90
44886;DHT22;36669;51.428;21.162;2022-09-30T01:06:42;4.90;99.90
44886;DHT22;36669;51.428;21.162;2022-09-30T01:09:09;4.80;99.90
44886;DHT22;36669;51.428;21.162;2022-09-30T01:11:35;4.80;99.90
44886;DHT22;36669;51.428;21.162;2022-09-30T01:14:22;4.70;99.90
44886;DHT22;36669;51.428;21.162;2022-09-30T01:17:11;4.70;99.90
44886;DHT22;36669;51.428;21.162;2022-09-30T01:25:52;4.60;99.90
44886;DHT22;36669;51.428;21.162;2022-09-30T01:32:09;4.60;99.90
44886;DHT22;36669;51.428;21.162;2022-09-30T01:34:42;4.60;99.90
44886;DHT22;36669;51.428;21.162;2022-09-30T01:37:23;4.70;99.90
44886;DHT22;36669;51.428;21.162;2022-09-30T01:43:36;4.60;99.90
44886;DHT22;36669;51.428;21.162;2022-09-30T01:48:56;4.50;99.90
44886;DHT22;36669;51.428;21.162;2022-09-30T01:54:27;4.50;99.90
44886;DHT22;36669;51.428;21.162;2022-09-30T01:57:19;4.40;99.90
44886;DHT22;36669;51.428;21.162;2022-09-30T02:00:05;4.40;99.90
44886;DHT22;36669;51.428;21.162;2022-09-30T02:05:28;4.40;99.90
44886;DHT22;36669;51.428;21.162;2022-09-30T02:07:58;4.40;99.90
44886;DHT22;36669;51.428;21.162;2022-09-30T02:10:27;4.40;99.90
44886;DHT22;36669;51.428;21.162;2022-09-30T02:13:19;4.30;99.90
44886;DHT22;36669;51.428;21.162;2022-09-30T02:15:52;4.30;99.90
44886;DHT22;36669;51.428;21.162;2022-09-30T02:20:50;4.30;99.90
44886;DHT22;36669;51.428;21.162;2022-09-30T02:23:28;4.20;99.90
44886;DHT22;36669;51.428;21.162;2022-09-30T02:26:01;4.20;99.90
44886;DHT22;36669;51.428;21.162;2022-09-30T02:28:28;4.20;99.90
44886;DHT22;36669;51.428;21.162;2022-09-30T02:30:56;4.10;99.90
44886;DHT22;36669;51.428;21.162;2022-09-30T02:33:37;4.10;99.90
44886;DHT22;36669;51.428;21.162;2022-09-30T02:42:35;4.00;99.90
44886;DHT22;36669;51.428;21.162;2022-09-30T02:45:11;4.00;99.90
44886;DHT22;36669;51.428;21.162;2022-09-30T02:58:29;4.10;99.90
44886;DHT22;36669;51.428;21.162;2022-09-30T03:00:55;4.00;99.90
44886;DHT22;36669;51.428;21.162;2022-09-30T03:06:02;4.00;99.90
44886;DHT22;36669;51.428;21.162;2022-09-30T03:08:28;4.00;99.90
44886;DHT22;36669;51.428;21.162;2022-09-30T03:10:54;3.90;99.90
44886;DHT22;36669;51.428;21.162;2022-09-30T03:27:23;3.80;99.90
44886;DHT22;36669;51.428;21.162;2022-09-30T03:30:01;3.80;99.90
44886;DHT22;36669;51.428;21.162;2022-09-30T03:35:38;3.80;99.90
44886;DHT22;36669;51.428;21.162;2022-09-30T03:43:43;3.80;99.90
44886;DHT22;36669;51.428;21.162;2022-09-30T03:46:25;3.90;99.90
44886;DHT22;36669;51.428;21.162;2022-09-30T03:48:59;3.90;99.90
44886;DHT22;36669;51.428;21.162;2022-09-30T03:51:26;4.00;99.90
44886;DHT22;36669;51.428;21.162;2022-09-30T03:53:53;4.00;99.90
44886;DHT22;36669;51.428;21.162;2022-09-30T03:56:29;4.00;99.90
44886;DHT22;36669;51.428;21.162;2022-09-30T03:58:55;4.10;99.90
44886;DHT22;36669;51.428;21.162;2022-09-30T04:01:21;4.10;99.90
44886;DHT22;36669;51.428;21.162;2022-09-30T04:03:51;4.10;99.90
44886;DHT22;36669;51.428;21.162;2022-09-30T04:06:19;4.20;99.90
44886;DHT22;36669;51.428;21.162;2022-09-30T04:08:44;4.20;99.90
44886;DHT22;36669;51.428;21.162;2022-09-30T04:11:11;4.30;99.90
44886;DHT22;36669;51.428;21.162;2022-09-30T04:13:37;4.40;99.90
44886;DHT22;36669;51.428;21.162;2022-09-30T04:16:04;4.40;99.90
44886;DHT22;36669;51.428;21.162;2022-09-30T04:18:30;4.40;99.90
44886;DHT22;36669;51.428;21.162;2022-09-30T04:20:56;4.50;99.90
44886;DHT22;36669;51.428;21.162;2022-09-30T04:23:22;4.50;99.90
44886;DHT22;36669;51.428;21.162;2022-09-30T04:25:52;4.50;99.90
44886;DHT22;36669;51.428;21.162;2022-09-30T04:28:18;4.50;99.90
44886;DHT22;36669;51.428;21.162;2022-09-30T04:30:43;4.50;99.90
44886;DHT22;36669;51.428;21.162;2022-09-30T04:33:09;4.60;99.90
44886;DHT22;36669;51.428;21.162;2022-09-30T04:35:36;4.50;99.90
44886;DHT22;36669;51.428;21.162;2022-09-30T04:38:01;4.50;99.90
44886;DHT22;36669;51.428;21.162;2022-09-30T04:40:27;4.50;99.90
44886;DHT22;36669;51.428;21.162;2022-09-30T04:42:55;4.60;99.90
44886;DHT22;36669;51.428;21.162;2022-09-30T04:45:21;4.60;99.90
44886;DHT22;36669;51.428;21.162;2022-09-30T04:47:46;4.60;99.90
44886;DHT22;36669;51.428;21.162;2022-09-30T04:50:12;4.60;99.90
44886;DHT22;36669;51.428;21.162;2022-09-30T04:52:41;4.60;99.90
44886;DHT22;36669;51.428;21.162;2022-09-30T04:55:07;4.60;99.90
44886;DHT22;36669;51.428;21.162;2022-09-30T04:57:32;4.60;99.90
44886;DHT22;36669;51.428;21.162;2022-09-30T04:59:58;4.60;99.90
44886;DHT22;36669;51.428;21.162;2022-09-30T05:02:23;4.70;99.90
44886;DHT22;36669;51.428;21.162;2022-09-30T05:04:49;4.70;99.90
44886;DHT22;36669;51.428;21.162;2022-09-30T05:07:14;4.70;99.90
44886;DHT22;36669;51.428;21.162;2022-09-30T05:09:40;4.70;99.90
44886;DHT22;36669;51.428;21.162;2022-09-30T05:12:05;4.70;99.90
44886;DHT22;36669;51.428;21.162;2022-09-30T05:14:31;4.70;99.90
44886;DHT22;36669;51.428;21.162;2022-09-30T05:16:56;4.80;99.90
44886;DHT22;36669;51.428;21.162;2022-09-30T05:19:22;4.90;99.90
44886;DHT22;36669;51.428;21.162;2022-09-30T05:21:47;4.90;99.90
44886;DHT22;36669;51.428;21.162;2022-09-30T05:24:13;5.00;99.90
44886;DHT22;36669;51.428;21.162;2022-09-30T05:26:39;5.00;99.90
44886;DHT22;36669;51.428;21.162;2022-09-30T05:29:05;5.10;99.90
44886;DHT22;36669;51.428;21.162;2022-09-30T05:31:31;5.10;99.90
44886;DHT22;36669;51.428;21.162;2022-09-30T05:33:57;5.20;99.90
44886;DHT22;36669;51.428;21.162;2022-09-30T05:36:22;5.30;99.90
44886;DHT22;36669;51.428;21.162;2022-09-30T05:38:52;5.40;99.90
44886;DHT22;36669;51.428;21.162;2022-09-30T05:41:17;5.50;99.90
44886;DHT22;36669;51.428;21.162;2022-09-30T05:43:43;5.50;99.90
44886;DHT22;36669;51.428;21.162;2022-09-30T05:46:08;5.60;99.90
44886;DHT22;36669;51.428;21.162;2022-09-30T05:48:34;5.60;99.90
44886;DHT22;36669;51.428;21.162;2022-09-30T05:50:59;5.70;99.90
44886;DHT22;36669;51.428;21.162;2022-09-30T05:53:25;5.80;99.90
44886;DHT22;36669;51.428;21.162;2022-09-30T05:55:50;5.80;99.90
44886;DHT22;36669;51.428;21.162;2022-09-30T05:58:17;5.90;99.90
44886;DHT22;36669;51.428;21.162;2022-09-30T06:00:44;5.90;99.90
44886;DHT22;36669;51.428;21.162;2022-09-30T06:03:10;6.00;99.90
44886;DHT22;36669;51.428;21.162;2022-09-30T06:05:36;6.10;99.90
44886;DHT22;36669;51.428;21.162;2022-09-30T06:08:01;6.20;99.90
44886;DHT22;36669;51.428;21.162;2022-09-30T06:10:27;6.30;99.90
44886;DHT22;36669;51.428;21.162;2022-09-30T06:12:52;6.50;99.90
44886;DHT22;36669;51.428;21.162;2022-09-30T06:15:18;6.60;99.90
44886;DHT22;36669;51.428;21.162;2022-09-30T06:17:43;6.80;99.90
44886;DHT22;36669;51.428;21.162;2022-09-30T06:20:09;6.90;99.90
44886;DHT22;36669;51.428;21.162;2022-09-30T06:22:35;7.10;99.90
44886;DHT22;36669;51.428;21.162;2022-09-30T06:25:03;7.20;99.90
44886;DHT22;36669;51.428;21.162;2022-09-30T06:27:29;7.30;99.90
44886;DHT22;36669;51.428;21.162;2022-09-30T06:29:55;7.40;99.90
44886;DHT22;36669;51.428;21.162;2022-09-30T06:32:20;7.60;99.90
44886;DHT22;36669;51.428;21.162;2022-09-30T06:34:46;7.80;99.90
44886;DHT22;36669;51.428;21.162;2022-09-30T06:37:11;7.90;99.90
44886;DHT22;36669;51.428;21.162;2022-09-30T06:39:37;8.10;99.90
44886;DHT22;36669;51.428;21.162;2022-09-30T06:42:02;8.30;99.90
44886;DHT22;36669;51.428;21.162;2022-09-30T06:44:28;8.40;99.90
44886;DHT22;36669;51.428;21.162;2022-09-30T06:46:53;8.60;99.90
44886;DHT22;36669;51.428;21.162;2022-09-30T06:49:19;8.80;99.90
44886;DHT22;36669;51.428;21.162;2022-09-30T06:51:44;9.00;99.90
44886;DHT22;36669;51.428;21.162;2022-09-30T06:54:10;9.20;99.90
44886;DHT22;36669;51.428;21.162;2022-09-30T06:56:35;9.30;99.90
44886;DHT22;36669;51.428;21.162;2022-09-30T06:59:01;9.50;99.90
44886;DHT22;36669;51.428;21.162;2022-09-30T07:01:26;9.70;99.90
44886;DHT22;36669;51.428;21.162;2022-09-30T07:03:52;9.80;99.90
44886;DHT22;36669;51.428;21.162;2022-09-30T07:06:17;10.10;99.90
44886;DHT22;36669;51.428;21.162;2022-09-30T07:08:43;10.20;99.90
44886;DHT22;36669;51.428;21.162;2022-09-30T07:11:10;10.40;99.90
44886;DHT22;36669;51.428;21.162;2022-09-30T07:13:36;10.50;99.90
44886;DHT22;36669;51.428;21.162;2022-09-30T07:16:02;10.60;99.90
44886;DHT22;36669;51.428;21.162;2022-09-30T07:18:27;10.70;99.90
44886;DHT22;36669;51.428;21.162;2022-09-30T07:20:54;10.80;99.90
44886;DHT22;36669;51.428;21.162;2022-09-30T07:23:21;10.80;99.90
44886;DHT22;36669;51.428;21.162;2022-09-30T07:26:00;10.90;99.90
44886;DHT22;36669;51.428;21.162;2022-09-30T07:28:28;11.00;99.90
44886;DHT22;36669;51.428;21.162;2022-09-30T07:30:54;11.20;99.90
44886;DHT22;36669;51.428;21.162;2022-09-30T07:33:21;11.20;99.90
44886;DHT22;36669;51.428;21.162;2022-09-30T07:35:56;11.20;99.90
44886;DHT22;36669;51.428;21.162;2022-09-30T07:38:25;11.20;99.90
44886;DHT22;36669;51.428;21.162;2022-09-30T07:41:03;11.30;99.90
44886;DHT22;36669;51.428;21.162;2022-09-30T07:43:30;11.30;99.90
44886;DHT22;36669;51.428;21.162;2022-09-30T07:45:56;11.30;99.90
44886;DHT22;36669;51.428;21.162;2022-09-30T07:48:21;11.30;99.90
44886;DHT22;36669;51.428;21.162;2022-09-30T07:50:47;11.30;99.90
44886;DHT22;36669;51.428;21.162;2022-09-30T07:53:12;11.20;99.90
44886;DHT22;36669;51.428;21.162;2022-09-30T07:55:38;11.20;99.90
44886;DHT22;36669;51.428;21.162;2022-09-30T07:58:03;11.20;99.90
44886;DHT22;36669;51.428;21.162;2022-09-30T08:00:29;11.20;99.90
44886;DHT22;36669;51.428;21.162;2022-09-30T08:02:54;11.10;99.90
44886;DHT22;36669;51.428;21.162;2022-09-30T08:05:20;11.20;99.90
44886;DHT22;36669;51.428;21.162;2022-09-30T08:07:45;11.20;99.90
44886;DHT22;36669;51.428;21.162;2022-09-30T08:10:11;11.20;99.90
44886;DHT22;36669;51.428;21.162;2022-09-30T08:12:36;11.30;99.90
44886;DHT22;36669;51.428;21.162;2022-09-30T08:15:02;11.30;99.90
44886;DHT22;36669;51.428;21.162;2022-09-30T08:17:27;11.30;99.90
44886;DHT22;36669;51.428;21.162;2022-09-30T08:19:53;11.30;99.90
44886;DHT22;36669;51.428;21.162;2022-09-30T08:22:18;11.20;99.90
44886;DHT22;36669;51.428;21.162;2022-09-30T08:24:44;11.30;99.90
44886;DHT22;36669;51.428;21.162;2022-09-30T08:27:09;11.30;99.90
44886;DHT22;36669;51.428;21.162;2022-09-30T08:29:35;11.40;99.90
44886;DHT22;36669;51.428;21.162;2022-09-30T08:32:00;11.30;99.90
44886;DHT22;36669;51.428;21.162;2022-09-30T08:34:26;11.30;99.90
44886;DHT22;36669;51.428;21.162;2022-09-30T08:36:51;11.30;99.90
44886;DHT22;36669;51.428;21.162;2022-09-30T08:39:17;11.40;99.90
44886;DHT22;36669;51.428;21.162;2022-09-30T08:52:36;11.70;99.90
44886;DHT22;36669;51.428;21.162;2022-09-30T08:55:04;11.70;99.90
44886;DHT22;36669;51.428;21.162;2022-09-30T08:57:39;11.70;99.90
44886;DHT22;36669;51.428;21.162;2022-09-30T09:00:09;11.70;99.90
44886;DHT22;36669;51.428;21.162;2022-09-30T09:02:56;11.80;99.90
44886;DHT22;36669;51.428;21.162;2022-09-30T09:11:08;12.00;99.90
44886;DHT22;36669;51.428;21.162;2022-09-30T09:13:52;12.00;99.90
44886;DHT22;36669;51.428;21.162;2022-09-30T09:16:38;12.00;99.90
44886;DHT22;36669;51.428;21.162;2022-09-30T09:19:09;12.10;99.90
44886;DHT22;36669;51.428;21.162;2022-09-30T09:24:46;12.00;99.90
44886;DHT22;36669;51.428;21.162;2022-09-30T09:30:16;12.00;99.90
44886;DHT22;36669;51.428;21.162;2022-09-30T09:32:55;11.90;99.90
44886;DHT22;36669;51.428;21.162;2022-09-30T09:35:42;11.90;99.90
44886;DHT22;36669;51.428;21.162;2022-09-30T09:51:47;11.90;99.90
44886;DHT22;36669;51.428;21.162;2022-09-30T09:54:17;11.90;99.90
44886;DHT22;36669;51.428;21.162;2022-09-30T09:56:45;11.80;99.90
44886;DHT22;36669;51.428;21.162;2022-09-30T09:59:14;11.80;99.90
44886;DHT22;36669;51.428;21.162;2022-09-30T10:01:43;11.70;99.90
44886;DHT22;36669;51.428;21.162;2022-09-30T10:04:24;11.70;99.90
44886;DHT22;36669;51.428;21.162;2022-09-30T10:06:51;11.70;99.90
44886;DHT22;36669;51.428;21.162;2022-09-30T10:09:33;11.70;99.90
44886;DHT22;36669;51.428;21.162;2022-09-30T10:14:54;11.60;99.90
44886;DHT22;36669;51.428;21.162;2022-09-30T10:17:19;11.60;99.90
44886;DHT22;36669;51.428;21.162;2022-09-30T10:19:51;11.50;99.90
44886;DHT22;36669;51.428;21.162;2022-09-30T10:22:19;11.50;99.90
44886;DHT22;36669;51.428;21.162;2022-09-30T10:24:44;11.40;99.90
44886;DHT22;36669;51.428;21.162;2022-09-30T10:27:32;11.50;99.90
44886;DHT22;36669;51.428;21.162;2022-09-30T10:29:57;11.40;99.90
44886;DHT22;36669;51.428;21.162;2022-09-30T10:32:24;11.40;99.90
44886;DHT22;36669;51.428;21.162;2022-09-30T10:35:17;11.40;99.90
44886;DHT22;36669;51.428;21.162;2022-09-30T10:37:52;11.50;99.90
44886;DHT22;36669;51.428;21.162;2022-09-30T10:40:27;11.50;99.90
44886;DHT22;36669;51.428;21.162;2022-09-30T10:42:53;11.50;99.90
44886;DHT22;36669;51.428;21.162;2022-09-30T10:45:28;11.50;99.90
44886;DHT22;36669;51.428;21.162;2022-09-30T10:48:05;11.50;99.90
44886;DHT22;36669;51.428;21.162;2022-09-30T10:50:31;11.50;99.90
44886;DHT22;36669;51.428;21.162;2022-09-30T10:52:59;11.50;99.90
44886;DHT22;36669;51.428;21.162;2022-09-30T10:55:31;11.50;99.90
44886;DHT22;36669;51.428;21.162;2022-09-30T10:58:19;11.50;99.90
44886;DHT22;36669;51.428;21.162;2022-09-30T11:00:48;11.40;99.90
44886;DHT22;36669;51.428;21.162;2022-09-30T11:03:19;11.40;99.90
44886;DHT22;36669;51.428;21.162;2022-09-30T11:05:48;11.40;99.90
44886;DHT22;36669;51.428;21.162;2022-09-30T11:08:38;11.40;99.90
44886;DHT22;36669;51.428;21.162;2022-09-30T11:11:13;11.30;99.90
44886;DHT22;36669;51.428;21.162;2022-09-30T11:17:08;11.30;99.90
44886;DHT22;36669;51.428;21.162;2022-09-30T11:19:40;11.30;99.90
44886;DHT22;36669;51.428;21.162;2022-09-30T11:24:52;11.30;99.90
44886;DHT22;36669;51.428;21.162;2022-09-30T11:30:19;11.20;99.90
44886;DHT22;36669;51.428;21.162;2022-09-30T11:35:40;11.10;99.90
44886;DHT22;36669;51.428;21.162;2022-09-30T11:55:06;11.10;99.90
44886;DHT22;36669;51.428;21.162;2022-09-30T12:00:16;11.00;99.90
44886;DHT22;36669;51.428;21.162;2022-09-30T12:02:50;11.00;99.90
44886;DHT22;36669;51.428;21.162;2022-09-30T12:08:05;11.00;99.90
44886;DHT22;36669;51.428;21.162;2022-09-30T12:10:45;11.00;99.90
44886;DHT22;36669;51.428;21.162;2022-09-30T12:13:39;11.00;99.90
44886;DHT22;36669;51.428;21.162;2022-09-30T12:16:07;11.00;99.90
44886;DHT22;36669;51.428;21.162;2022-09-30T12:18:40;11.00;99.90
44886;DHT22;36669;51.428;21.162;2022-09-30T12:21:22;11.00;99.90
44886;DHT22;36669;51.428;21.162;2022-09-30T12:23:57;11.00;99.90
44886;DHT22;36669;51.428;21.162;2022-09-30T12:26:23;10.90;99.90
44886;DHT22;36669;51.428;21.162;2022-09-30T12:29:27;10.90;99.90
44886;DHT22;36669;51.428;21.162;2022-09-30T12:37:54;10.90;99.90
44886;DHT22;36669;51.428;21.162;2022-09-30T12:46:12;10.80;99.90
44886;DHT22;36669;51.428;21.162;2022-09-30T12:53:51;10.80;99.90
44886;DHT22;36669;51.428;21.162;2022-09-30T12:56:25;10.80;99.90
44886;DHT22;36669;51.428;21.162;2022-09-30T12:58:52;10.80;99.90
44886;DHT22;36669;51.428;21.162;2022-09-30T13:01:23;10.80;99.90
44886;DHT22;36669;51.428;21.162;2022-09-30T13:06:22;10.80;99.90
44886;DHT22;36669;51.428;21.162;2022-09-30T13:11:35;10.80;99.90
44886;DHT22;36669;51.428;21.162;2022-09-30T13:14:28;10.90;99.90
44886;DHT22;36669;51.428;21.162;2022-09-30T13:19:51;10.90;99.90
44886;DHT22;36669;51.428;21.162;2022-09-30T13:29:59;10.80;99.90
44886;DHT22;36669;51.428;21.162;2022-09-30T13:32:33;10.80;99.90
44886;DHT22;36669;51.428;21.162;2022-09-30T13:34:59;10.80;99.90
44886;DHT22;36669;51.428;21.162;2022-09-30T13:37:35;10.70;99.90
44886;DHT22;36669;51.428;21.162;2022-09-30T13:40:03;10.70;99.90
44886;DHT22;36669;51.428;21.162;2022-09-30T13:42:32;10.70;99.90
44886;DHT22;36669;51.428;21.162;2022-09-30T13:45:14;10.70;99.90
44886;DHT22;36669;51.428;21.162;2022-09-30T13:48:06;10.70;99.90
44886;DHT22;36669;51.428;21.162;2022-09-30T13:50:33;10.80;99.90
44886;DHT22;36669;51.428;21.162;2022-09-30T13:53:04;10.80;99.90
44886;DHT22;36669;51.428;21.162;2022-09-30T13:55:43;10.80;99.90
44886;DHT22;36669;51.428;21.162;2022-09-30T13:58:34;10.80;99.90
44886;DHT22;36669;51.428;21.162;2022-09-30T14:04:07;10.70;99.90
44886;DHT22;36669;51.428;21.162;2022-09-30T14:09:40;10.70;99.90
44886;DHT22;36669;51.428;21.162;2022-09-30T14:22:55;10.70;99.90
44886;DHT22;36669;51.428;21.162;2022-09-30T14:25:21;10.60;99.90
44886;DHT22;36669;51.428;21.162;2022-09-30T14:28:04;10.60;99.90
44886;DHT22;36669;51.428;21.162;2022-09-30T14:30:41;10.60;99.90
44886;DHT22;36669;51.428;21.162;2022-09-30T14:33:19;10.60;99.90
44886;DHT22;36669;51.428;21.162;2022-09-30T14:35:51;10.50;99.90
44886;DHT22;36669;51.428;21.162;2022-09-30T14:38:23;10.50;99.90
44886;DHT22;36669;51.428;21.162;2022-09-30T14:40:51;10.40;99.90
44886;DHT22;36669;51.428;21.162;2022-09-30T14:43:21;10.40;99.90
44886;DHT22;36669;51.428;21.162;2022-09-30T14:45:51;10.40;99.90
44886;DHT22;36669;51.428;21.162;2022-09-30T14:48:29;10.40;99.90
44886;DHT22;36669;51.428;21.162;2022-09-30T14:50:59;10.40;99.90
44886;DHT22;36669;51.428;21.162;2022-09-30T14:53:29;10.40;99.90
44886;DHT22;36669;51.428;21.162;2022-09-30T14:55:55;10.40;99.90
44886;DHT22;36669;51.428;21.162;2022-09-30T14:58:25;10.40;99.90
44886;DHT22;36669;51.428;21.162;2022-09-30T15:01:06;10.30;99.90
44886;DHT22;36669;51.428;21.162;2022-09-30T15:03:42;10.30;99.90
44886;DHT22;36669;51.428;21.162;2022-09-30T15:06:24;10.30;99.90
44886;DHT22;36669;51.428;21.162;2022-09-30T15:09:00;10.30;99.90
44886;DHT22;36669;51.428;21.162;2022-09-30T15:11:27;10.30;99.90
44886;DHT22;36669;51.428;21.162;2022-09-30T15:14:18;10.30;99.90
44886;DHT22;36669;51.428;21.162;2022-09-30T15:16:49;10.20;99.90
44886;DHT22;36669;51.428;21.162;2022-09-30T15:19:21;10.20;99.90
44886;DHT22;36669;51.428;21.162;2022-09-30T15:21:48;10.20;99.90
44886;DHT22;36669;51.428;21.162;2022-09-30T15:24:16;10.20;99.90
44886;DHT22;36669;51.428;21.162;2022-09-30T15:26:42;10.20;99.90
44886;DHT22;36669;51.428;21.162;2022-09-30T15:29:15;10.20;99.90
44886;DHT22;36669;51.428;21.162;2022-09-30T15:32:00;10.20;99.90
44886;DHT22;36669;51.428;21.162;2022-09-30T15:34:27;10.20;99.90
44886;DHT22;36669;51.428;21.162;2022-09-30T15:36:59;10.20;99.90
44886;DHT22;36669;51.428;21.162;2022-09-30T15:39:29;10.20;99.90
44886;DHT22;36669;51.428;21.162;2022-09-30T15:41:55;10.20;99.90
44886;DHT22;36669;51.428;21.162;2022-09-30T15:44:37;10.20;99.90
44886;DHT22;36669;51.428;21.162;2022-09-30T15:47:08;10.20;99.90
44886;DHT22;36669;51.428;21.162;2022-09-30T15:52:36;10.20;99.90
44886;DHT22;36669;51.428;21.162;2022-09-30T15:55:36;10.20;99.90
44886;DHT22;36669;51.428;21.162;2022-09-30T15:58:02;10.20;99.90
44886;DHT22;36669;51.428;21.162;2022-09-30T16:00:32;10.20;99.90
44886;DHT22;36669;51.428;21.162;2022-09-30T16:05:51;10.20;99.90
44886;DHT22;36669;51.428;21.162;2022-09-30T16:08:26;10.20;99.90
44886;DHT22;36669;51.428;21.162;2022-09-30T16:10:55;10.20;99.90
44886;DHT22;36669;51.428;21.162;2022-09-30T16:13:24;10.10;99.90
44886;DHT22;36669;51.428;21.162;2022-09-30T16:15:54;10.10;99.90
44886;DHT22;36669;51.428;21.162;2022-09-30T16:18:24;10.10;99.90
44886;DHT22;36669;51.428;21.162;2022-09-30T16:21:01;10.00;99.90
44886;DHT22;36669;51.428;21.162;2022-09-30T16:23:36;10.00;99.90
44886;DHT22;36669;51.428;21.162;2022-09-30T16:28:37;10.00;99.90
44886;DHT22;36669;51.428;21.162;2022-09-30T16:31:03;9.90;99.90
44886;DHT22;36669;51.428;21.162;2022-09-30T16:33:29;9.90;99.90
44886;DHT22;36669;51.428;21.162;2022-09-30T16:35:54;9.90;99.90
44886;DHT22;36669;51.428;21.162;2022-09-30T16:38:20;9.90;99.90
44886;DHT22;36669;51.428;21.162;2022-09-30T16:40:45;9.90;99.90
44886;DHT22;36669;51.428;21.162;2022-09-30T16:43:11;9.90;99.90
44886;DHT22;36669;51.428;21.162;2022-09-30T16:45:37;9.90;99.90
44886;DHT22;36669;51.428;21.162;2022-09-30T16:48:16;9.90;99.90
44886;DHT22;36669;51.428;21.162;2022-09-30T16:51:33;9.90;99.90
44886;DHT22;36669;51.428;21.162;2022-09-30T16:53:34;9.90;99.90
44886;DHT22;36669;51.428;21.162;2022-09-30T16:55:59;9.90;99.90
44886;DHT22;36669;51.428;21.162;2022-09-30T16:58:25;9.80;99.90
44886;DHT22;36669;51.428;21.162;2022-09-30T17:00:51;9.80;99.90
44886;DHT22;36669;51.428;21.162;2022-09-30T17:03:17;9.80;99.90
44886;DHT22;36669;51.428;21.162;2022-09-30T17:05:45;9.80;99.90
44886;DHT22;36669;51.428;21.162;2022-09-30T17:08:12;9.80;99.90
44886;DHT22;36669;51.428;21.162;2022-09-30T17:10:38;9.70;99.90
44886;DHT22;36669;51.428;21.162;2022-09-30T17:13:04;9.70;99.90
44886;DHT22;36669;51.428;21.162;2022-09-30T17:15:32;9.70;99.90
44886;DHT22;36669;51.428;21.162;2022-09-30T17:17:58;9.70;99.90
44886;DHT22;36669;51.428;21.162;2022-09-30T17:20:25;9.70;99.90
44886;DHT22;36669;51.428;21.162;2022-09-30T17:22:50;9.70;99.90
44886;DHT22;36669;51.428;21.162;2022-09-30T17:25:17;9.60;99.90
44886;DHT22;36669;51.428;21.162;2022-09-30T17:27:45;9.60;99.90
44886;DHT22;36669;51.428;21.162;2022-09-30T17:30:11;9.60;99.90
44886;DHT22;36669;51.428;21.162;2022-09-30T17:32:36;9.60;99.90
44886;DHT22;36669;51.428;21.162;2022-09-30T17:35:03;9.60;99.90
44886;DHT22;36669;51.428;21.162;2022-09-30T17:37:29;9.60;99.90
44886;DHT22;36669;51.428;21.162;2022-09-30T17:39:55;9.60;99.90
44886;DHT22;36669;51.428;21.162;2022-09-30T17:42:20;9.60;99.90
44886;DHT22;36669;51.428;21.162;2022-09-30T17:44:46;9.60;99.90
44886;DHT22;36669;51.428;21.162;2022-09-30T17:47:11;9.60;99.90
44886;DHT22;36669;51.428;21.162;2022-09-30T17:49:37;9.60;99.90
44886;DHT22;36669;51.428;21.162;2022-09-30T17:52:03;9.60;99.90
44886;DHT22;36669;51.428;21.162;2022-09-30T17:54:29;9.60;99.90
44886;DHT22;36669;51.428;21.162;2022-09-30T17:56:55;9.60;99.90
44886;DHT22;36669;51.428;21.162;2022-09-30T17:59:20;9.60;99.90
44886;DHT22;36669;51.428;21.162;2022-09-30T18:01:48;9.60;99.90
44886;DHT22;36669;51.428;21.162;2022-09-30T18:04:13;9.60;99.90
44886;DHT22;36669;51.428;21.162;2022-09-30T18:06:42;9.50;99.90
44886;DHT22;36669;51.428;21.162;2022-09-30T18:09:08;9.50;99.90
44886;DHT22;36669;51.428;21.162;2022-09-30T18:11:36;9.50;99.90
44886;DHT22;36669;51.428;21.162;2022-09-30T18:14:10;9.50;99.90
44886;DHT22;36669;51.428;21.162;2022-09-30T18:16:47;9.60;99.90
44886;DHT22;36669;51.428;21.162;2022-09-30T18:19:14;9.70;99.90
44886;DHT22;36669;51.428;21.162;2022-09-30T18:21:39;9.60;99.90
44886;DHT22;36669;51.428;21.162;2022-09-30T18:24:06;9.60;99.90
44886;DHT22;36669;51.428;21.162;2022-09-30T18:26:34;9.60;99.90
44886;DHT22;36669;51.428;21.162;2022-09-30T18:29:03;9.50;99.90
44886;DHT22;36669;51.428;21.162;2022-09-30T18:31:28;9.50;99.90
44886;DHT22;36669;51.428;21.162;2022-09-30T18:33:56;9.50;99.90
44886;DHT22;36669;51.428;21.162;2022-09-30T18:36:24;9.50;99.90
44886;DHT22;36669;51.428;21.162;2022-09-30T18:38:52;9.50;99.90
44886;DHT22;36669;51.428;21.162;2022-09-30T18:41:19;9.50;99.90
44886;DHT22;36669;51.428;21.162;2022-09-30T18:43:45;9.50;99.90
44886;DHT22;36669;51.428;21.162;2022-09-30T18:46:18;9.50;99.90
44886;DHT22;36669;51.428;21.162;2022-09-30T18:48:48;9.50;99.90
44886;DHT22;36669;51.428;21.162;2022-09-30T18:51:15;9.50;99.90
44886;DHT22;36669;51.428;21.162;2022-09-30T18:53:55;9.50;99.90
44886;DHT22;36669;51.428;21.162;2022-09-30T18:56:27;9.50;99.90
44886;DHT22;36669;51.428;21.162;2022-09-30T18:58:54;9.40;99.90